createdAt,value
2018-06-16T00:01:47.031Z,71.20
2018-06-16T00:04:14.338Z,72.00
2018-06-16T00:06:41.615Z,71.10
2018-06-16T00:09:09.418Z,71.90
2018-06-16T00:11:36.899Z,72.20
2018-06-16T00:16:31.398Z,72.70
2018-06-16T00:18:58.630Z,72.60
2018-06-16T00:21:25.931Z,72.70
2018-06-16T00:23:53.300Z,72.70
2018-06-16T00:26:20.567Z,73.50
2018-06-16T00:28:47.779Z,72.80
2018-06-16T00:31:15.032Z,72.10
2018-06-16T00:33:42.635Z,73.00
2018-06-16T00:36:09.903Z,72.80
2018-06-16T00:38:37.192Z,73.30
2018-06-16T00:41:04.428Z,71.90
2018-06-16T00:43:31.684Z,73.30
2018-06-16T00:45:58.963Z,74.00
2018-06-16T00:48:26.236Z,72.60
2018-06-16T00:50:53.484Z,72.40
2018-06-16T00:53:20.734Z,74.30
2018-06-16T00:55:47.970Z,73.70
2018-06-16T00:58:15.236Z,73.70
2018-06-16T01:03:09.727Z,73.90
2018-06-16T01:05:37.004Z,73.90
2018-06-16T01:08:04.298Z,73.30
2018-06-16T01:10:31.543Z,74.10
2018-06-16T01:13:00.188Z,74.10
2018-06-16T01:15:27.508Z,73.40
2018-06-16T01:17:54.780Z,74.60
2018-06-16T01:20:22.020Z,74.40
2018-06-16T01:22:49.299Z,74.00
2018-06-16T01:25:16.555Z,74.70
2018-06-16T01:27:44.302Z,74.80
2018-06-16T01:30:11.560Z,74.10
2018-06-16T01:32:38.811Z,75.00
2018-06-16T01:35:06.018Z,75.10
2018-06-16T01:37:33.255Z,73.80
2018-06-16T01:40:00.552Z,75.40
2018-06-16T01:42:27.774Z,74.60
2018-06-16T01:44:55.003Z,75.70
2018-06-16T01:47:24.538Z,75.80
2018-06-16T01:52:19.096Z,76.00
2018-06-16T01:54:46.309Z,76.90
2018-06-16T01:57:13.539Z,74.40
2018-06-16T01:59:40.749Z,76.30
2018-06-16T02:02:07.970Z,75.60
2018-06-16T02:04:35.250Z,75.60
2018-06-16T02:07:02.459Z,74.60
2018-06-16T02:09:29.701Z,75.70
2018-06-16T02:11:56.960Z,77.20
2018-06-16T02:14:24.200Z,76.30
2018-06-16T02:16:51.453Z,75.90
2018-06-16T02:19:18.758Z,75.80
2018-06-16T02:21:45.968Z,75.30
2018-06-16T02:24:13.178Z,76.60
2018-06-16T02:26:40.404Z,76.60
2018-06-16T02:29:07.672Z,75.70
2018-06-16T02:31:34.975Z,74.90
2018-06-16T02:34:02.247Z,76.80
2018-06-16T02:36:29.482Z,76.90
2018-06-16T02:38:56.767Z,76.90
2018-06-16T02:41:24.054Z,75.50
2018-06-16T02:43:51.358Z,76.80
2018-06-16T02:46:18.584Z,75.60
2018-06-16T02:48:45.833Z,75.30
2018-06-16T02:51:13.059Z,76.70
2018-06-16T02:53:40.320Z,75.10
2018-06-16T02:56:08.522Z,76.60
2018-06-16T02:58:35.978Z,76.30
2018-06-16T03:01:03.795Z,75.90
2018-06-16T03:03:31.061Z,76.70
2018-06-16T03:05:58.319Z,76.40
2018-06-16T03:08:25.555Z,76.00
2018-06-16T03:10:52.835Z,76.80
2018-06-16T03:13:20.076Z,77.90
2018-06-16T03:15:47.339Z,77.10
2018-06-16T03:18:14.608Z,77.10
2018-06-16T03:20:41.866Z,77.80
2018-06-16T03:23:09.115Z,76.60
2018-06-16T03:25:36.357Z,77.10
2018-06-16T03:28:03.616Z,77.20
2018-06-16T03:30:30.871Z,77.20
2018-06-16T03:32:58.140Z,76.90
2018-06-16T03:35:25.454Z,77.20
2018-06-16T03:37:52.699Z,77.10
2018-06-16T03:42:47.170Z,77.00
2018-06-16T03:45:14.415Z,75.70
2018-06-16T03:47:41.708Z,76.90
2018-06-16T03:50:08.944Z,75.40
2018-06-16T03:52:36.162Z,75.60
2018-06-16T03:55:03.375Z,76.40
2018-06-16T03:57:30.631Z,76.20
2018-06-16T03:59:57.891Z,74.40
2018-06-16T04:02:25.126Z,76.00
2018-06-16T04:04:52.367Z,76.80
2018-06-16T04:07:19.580Z,75.50
2018-06-16T04:09:46.866Z,75.50
2018-06-16T04:12:14.151Z,75.10
2018-06-16T04:14:41.436Z,75.50
2018-06-16T04:17:20.648Z,75.70
2018-06-16T04:19:50.147Z,75.50
2018-06-16T04:22:17.576Z,75.50
2018-06-16T04:24:44.774Z,75.40
2018-06-16T04:27:12.068Z,75.30
2018-06-16T04:29:39.408Z,74.80
2018-06-16T04:32:06.738Z,74.40
2018-06-16T04:34:34.454Z,74.40
2018-06-16T04:37:01.835Z,73.40
2018-06-16T04:39:29.082Z,74.60
2018-06-16T04:41:56.340Z,73.80
2018-06-16T04:44:23.572Z,74.50
2018-06-16T04:46:50.811Z,73.60
2018-06-16T04:49:18.030Z,73.60
2018-06-16T04:51:45.266Z,73.20
2018-06-16T04:54:12.499Z,73.20
2018-06-16T04:56:39.720Z,72.90
2018-06-16T04:59:06.971Z,71.50
2018-06-16T05:01:34.679Z,72.60
2018-06-16T05:04:01.929Z,72.70
2018-06-16T05:08:56.471Z,72.20
2018-06-16T05:11:23.694Z,70.70
2018-06-16T05:13:50.939Z,71.80
2018-06-16T05:16:18.164Z,71.60
2018-06-16T05:18:45.458Z,71.60
2018-06-16T05:21:12.742Z,71.00
2018-06-16T05:23:39.999Z,70.90
2018-06-16T05:26:07.276Z,70.90
2018-06-16T05:28:34.511Z,69.30
2018-06-16T05:31:01.746Z,70.80
2018-06-16T05:33:28.931Z,70.80
2018-06-16T05:35:56.635Z,70.20
2018-06-16T05:38:23.957Z,68.60
2018-06-16T05:43:18.378Z,69.50
2018-06-16T05:48:12.878Z,69.30
2018-06-16T05:50:40.123Z,69.40
2018-06-16T05:53:07.366Z,68.90
2018-06-16T05:55:34.609Z,68.80
2018-06-16T05:58:01.908Z,68.90
2018-06-16T06:00:29.164Z,68.20
2018-06-16T06:02:56.538Z,67.80
2018-06-16T06:05:23.814Z,67.50
2018-06-16T06:07:51.098Z,66.00
2018-06-16T06:10:18.435Z,64.00
2018-06-16T06:12:45.723Z,65.40
2018-06-16T06:15:12.983Z,65.20
2018-06-16T06:17:43.337Z,64.10
2018-06-16T06:20:10.577Z,63.60
2018-06-16T06:22:37.811Z,61.70
2018-06-16T06:25:05.223Z,62.20
2018-06-16T06:27:32.525Z,61.30
2018-06-16T06:32:27.083Z,59.80
2018-06-16T06:34:54.312Z,60.30
2018-06-16T06:37:21.568Z,60.30
2018-06-16T06:39:48.815Z,60.10
2018-06-16T06:42:16.075Z,59.40
2018-06-16T06:44:43.343Z,59.30
2018-06-16T06:47:10.635Z,57.20
2018-06-16T06:49:37.899Z,56.90
2018-06-16T06:52:05.216Z,55.90
2018-06-16T06:54:32.470Z,55.30
2018-06-16T06:56:59.762Z,54.90
2018-06-16T06:59:27.004Z,54.50
2018-06-16T07:01:54.250Z,55.00
2018-06-16T07:07:14.648Z,55.00
2018-06-16T07:09:41.951Z,54.90
2018-06-16T07:12:09.414Z,54.30
2018-06-16T07:17:03.915Z,53.30
2018-06-16T07:19:31.148Z,53.10
2018-06-16T07:21:58.448Z,52.80
2018-06-16T07:24:25.710Z,52.00
2018-06-16T07:26:52.975Z,52.20
2018-06-16T07:29:20.259Z,51.60
2018-06-16T07:31:47.492Z,51.20
2018-06-16T07:34:15.022Z,50.60
2018-06-16T07:39:10.094Z,49.40
2018-06-16T07:41:37.351Z,49.00
2018-06-16T07:44:04.806Z,48.40
2018-06-16T07:46:32.097Z,47.10
2018-06-16T07:48:59.379Z,45.60
2018-06-16T07:51:26.828Z,46.70
2018-06-16T07:53:54.331Z,44.60
2018-06-16T07:56:21.860Z,44.20
2018-06-16T07:58:49.123Z,43.70
2018-06-16T08:01:16.898Z,43.50
2018-06-16T08:03:44.164Z,43.30
2018-06-16T08:06:11.435Z,42.70
2018-06-16T08:08:38.719Z,42.10
2018-06-16T08:11:06.025Z,40.40
2018-06-16T08:16:00.692Z,38.20
2018-06-16T08:18:27.931Z,38.00
2018-06-16T08:23:22.425Z,35.60
2018-06-16T08:25:49.677Z,35.60
2018-06-16T08:28:16.959Z,34.60
2018-06-16T08:30:44.207Z,33.40
2018-06-16T08:33:11.498Z,33.30
2018-06-16T08:35:38.706Z,32.60
2018-06-16T08:38:05.968Z,31.30
2018-06-16T08:40:33.240Z,31.10
2018-06-16T08:43:00.495Z,31.10
2018-06-16T08:45:27.730Z,30.90
2018-06-16T08:47:55.034Z,29.90
2018-06-16T08:50:22.306Z,29.40
2018-06-16T08:52:49.833Z,29.70
2018-06-16T08:55:17.366Z,29.90
2018-06-16T08:57:44.583Z,28.30
2018-06-16T09:02:39.101Z,27.50
2018-06-16T09:05:06.507Z,26.90
2018-06-16T09:07:33.780Z,25.90
2018-06-16T09:10:00.986Z,25.90
2018-06-16T09:12:28.224Z,26.30
2018-06-16T09:14:55.446Z,25.50
2018-06-16T09:17:22.721Z,23.90
2018-06-16T09:19:49.887Z,24.60
2018-06-16T09:22:17.142Z,25.80
2018-06-16T09:24:44.382Z,26.40
2018-06-16T09:27:11.603Z,28.00
2018-06-16T09:29:38.842Z,28.70
2018-06-16T09:32:06.059Z,29.20
2018-06-16T09:34:33.307Z,29.50
2018-06-16T09:37:06.468Z,29.50
2018-06-16T09:39:33.751Z,30.20
2018-06-16T09:42:00.988Z,31.30
2018-06-16T09:46:55.675Z,30.60
2018-06-16T09:49:22.948Z,30.20
2018-06-16T09:51:50.215Z,31.10
2018-06-16T09:54:17.453Z,30.60
2018-06-16T09:56:50.419Z,30.20
2018-06-16T09:59:17.675Z,30.10
2018-06-16T10:01:44.902Z,28.90
2018-06-16T10:04:12.151Z,27.30
2018-06-16T10:06:40.010Z,26.70
2018-06-16T10:09:08.316Z,24.80
2018-06-16T10:11:35.563Z,23.50
2018-06-16T10:14:02.962Z,24.60
2018-06-16T10:16:30.286Z,24.20
2018-06-16T10:21:24.959Z,22.70
2018-06-16T10:23:52.275Z,22.20
2018-06-16T10:29:12.320Z,23.70
2018-06-16T10:31:39.538Z,25.20
2018-06-16T10:34:06.819Z,25.30
2018-06-16T10:36:34.155Z,24.00
2018-06-16T10:39:01.447Z,23.30
2018-06-16T10:41:28.687Z,22.60
2018-06-16T10:43:55.988Z,22.90
2018-06-16T10:46:23.204Z,21.10
2018-06-16T10:48:50.422Z,21.20
2018-06-16T10:51:17.629Z,22.30
2018-06-16T10:53:47.111Z,23.10
2018-06-16T10:56:14.356Z,24.20
2018-06-16T10:58:41.694Z,24.20
2018-06-16T11:01:08.890Z,21.70
2018-06-16T11:03:36.144Z,22.00
2018-06-16T11:06:03.372Z,20.20
2018-06-16T11:08:30.719Z,19.90
2018-06-16T11:10:57.919Z,20.30
2018-06-16T11:13:25.149Z,20.10
2018-06-16T11:15:52.356Z,21.80
2018-06-16T11:18:19.576Z,22.80
2018-06-16T11:20:46.819Z,25.50
2018-06-16T11:23:14.027Z,27.20
2018-06-16T11:25:41.276Z,27.00
2018-06-16T11:28:08.616Z,27.80
2018-06-16T11:30:35.853Z,27.30
2018-06-16T11:33:03.082Z,27.90
2018-06-16T11:35:30.295Z,27.60
2018-06-16T11:37:57.499Z,28.20
2018-06-16T11:40:24.747Z,28.00
2018-06-16T11:42:51.977Z,28.30
2018-06-16T11:45:19.211Z,28.00
2018-06-16T11:47:46.414Z,28.00
2018-06-16T11:50:13.676Z,28.10
2018-06-16T11:52:41.461Z,28.80
2018-06-16T11:55:08.733Z,27.80
2018-06-16T11:57:36.106Z,27.90
2018-06-16T12:00:03.388Z,27.80
2018-06-16T12:02:30.619Z,27.80
2018-06-16T12:04:57.842Z,27.10
2018-06-16T12:07:25.089Z,27.50
2018-06-16T12:09:52.507Z,27.40
2018-06-16T12:12:19.743Z,26.90
2018-06-16T12:14:46.951Z,27.40
2018-06-16T12:17:14.246Z,26.50
2018-06-16T12:22:08.743Z,27.50
2018-06-16T12:24:35.971Z,27.60
2018-06-16T12:27:03.281Z,28.00
2018-06-16T12:29:30.534Z,28.20
2018-06-16T12:31:57.766Z,27.80
2018-06-16T12:34:24.978Z,27.40
2018-06-16T12:36:52.203Z,26.90
2018-06-16T12:39:19.419Z,28.00
2018-06-16T12:46:41.246Z,29.40
2018-06-16T12:49:08.476Z,28.60
2018-06-16T12:54:02.951Z,29.30
2018-06-16T12:56:30.484Z,28.50
2018-06-16T13:01:25.077Z,28.00
2018-06-16T13:03:52.418Z,30.50
2018-06-16T13:06:19.903Z,28.40
2018-06-16T13:08:47.119Z,29.30
2018-06-16T13:11:14.721Z,27.20
2018-06-16T13:13:42.179Z,28.40
2018-06-16T13:16:09.464Z,27.70
2018-06-16T13:18:36.691Z,28.60
2018-06-16T13:21:03.939Z,28.50
2018-06-16T13:23:31.235Z,26.90
2018-06-16T13:25:58.516Z,26.30
2018-06-16T13:28:25.719Z,26.60
2018-06-16T13:30:52.954Z,26.40
2018-06-16T13:33:20.174Z,26.60
2018-06-16T13:35:47.427Z,26.40
2018-06-16T13:38:14.710Z,26.30
2018-06-16T13:43:09.226Z,26.30
2018-06-16T13:45:36.642Z,26.40
2018-06-16T13:48:03.936Z,26.00
2018-06-16T13:50:31.143Z,26.50
2018-06-16T13:55:25.943Z,26.00
2018-06-16T13:57:53.180Z,26.90
2018-06-16T14:00:20.447Z,26.60
2018-06-16T14:02:47.779Z,26.50
2018-06-16T14:05:15.011Z,30.60
2018-06-16T14:07:42.317Z,28.80
2018-06-16T14:10:09.541Z,29.20
2018-06-16T14:12:37.044Z,28.90
2018-06-16T14:15:04.363Z,27.40
2018-06-16T14:17:31.621Z,27.60
2018-06-16T14:19:58.890Z,27.40
2018-06-16T14:22:26.193Z,28.70
2018-06-16T14:27:20.717Z,26.90
2018-06-16T14:29:47.927Z,27.10
2018-06-16T14:32:15.190Z,25.80
2018-06-16T14:34:42.424Z,26.80
2018-06-16T14:39:36.995Z,26.70
2018-06-16T14:42:04.976Z,27.40
2018-06-16T14:44:32.415Z,28.20
2018-06-16T14:46:59.654Z,28.50
2018-06-16T14:49:26.907Z,29.00
2018-06-16T14:51:54.188Z,29.10
2018-06-16T14:54:21.435Z,27.80
2018-06-16T14:56:48.687Z,27.90
2018-06-16T14:59:15.881Z,27.80
2018-06-16T15:01:43.132Z,26.80
2018-06-16T15:04:10.401Z,27.40
2018-06-16T15:06:37.659Z,28.70
2018-06-16T15:09:07.342Z,28.50
2018-06-16T15:11:34.563Z,28.60
2018-06-16T15:14:01.799Z,27.40
2018-06-16T15:16:29.027Z,27.30
2018-06-16T15:18:56.265Z,28.10
2018-06-16T15:23:50.737Z,27.80
2018-06-16T15:26:17.956Z,28.00
2018-06-16T15:31:12.418Z,27.40
2018-06-16T15:33:39.710Z,27.60
2018-06-16T15:36:06.943Z,29.00
2018-06-16T15:38:34.171Z,28.90
2018-06-16T15:41:01.382Z,29.30
2018-06-16T15:43:28.611Z,30.00
2018-06-16T15:45:55.933Z,28.90
2018-06-16T15:48:23.194Z,29.00
2018-06-16T15:50:50.438Z,29.10
2018-06-16T15:53:17.693Z,28.90
2018-06-16T15:55:44.911Z,28.70
2018-06-16T15:58:12.190Z,28.80
2018-06-16T16:00:39.426Z,28.90
2018-06-16T16:03:06.635Z,29.10
2018-06-16T16:08:01.114Z,30.00
2018-06-16T16:10:28.326Z,30.30
2018-06-16T16:17:50.035Z,32.00
2018-06-16T16:20:17.248Z,32.40
2018-06-16T16:22:44.803Z,31.60
2018-06-16T16:25:12.023Z,33.50
2018-06-16T16:30:06.523Z,32.10
2018-06-16T16:32:34.110Z,32.70
2018-06-16T16:35:01.343Z,32.70
2018-06-16T16:37:28.568Z,33.00
2018-06-16T16:39:55.779Z,34.40
2018-06-16T16:42:23.027Z,34.50
2018-06-16T16:44:50.724Z,34.10
2018-06-16T16:47:17.985Z,35.00
2018-06-16T16:49:45.226Z,34.60
2018-06-16T16:52:12.486Z,35.00
2018-06-16T16:54:39.782Z,34.90
2018-06-16T16:57:07.219Z,34.90
2018-06-16T16:59:34.478Z,34.00
2018-06-16T17:02:01.695Z,35.10
2018-06-16T17:04:28.926Z,34.20
2018-06-16T17:06:56.142Z,33.60
2018-06-16T17:09:23.378Z,33.20
2018-06-16T17:11:50.639Z,33.90
2018-06-16T17:14:17.965Z,34.20
2018-06-16T17:16:45.202Z,34.40
2018-06-16T17:21:39.717Z,35.30
2018-06-16T17:24:06.943Z,35.50
2018-06-16T17:26:34.167Z,35.10
2018-06-16T17:29:01.399Z,35.40
2018-06-16T17:31:28.691Z,35.30
2018-06-16T17:33:55.947Z,36.00
2018-06-16T17:38:50.464Z,36.60
2018-06-16T17:41:17.696Z,36.80
2018-06-16T17:43:45.044Z,37.50
2018-06-16T17:46:12.204Z,38.40
2018-06-16T17:48:39.442Z,38.70
2018-06-16T17:51:06.711Z,38.10
2018-06-16T17:53:33.899Z,38.40
2018-06-16T17:56:01.201Z,38.10
2018-06-16T17:58:28.409Z,38.40
2018-06-16T18:03:22.953Z,39.20
2018-06-16T18:05:50.175Z,39.40
2018-06-16T18:08:17.388Z,39.50
2018-06-16T18:10:44.644Z,39.70
2018-06-16T18:13:11.871Z,40.40
2018-06-16T18:15:39.170Z,41.10
2018-06-16T18:18:06.354Z,40.80
2018-06-16T18:20:33.583Z,40.70
2018-06-16T18:23:00.794Z,41.20
2018-06-16T18:25:28.073Z,41.50
2018-06-16T18:27:55.223Z,40.90
2018-06-16T18:30:22.464Z,41.30
2018-06-16T18:32:49.708Z,41.50
2018-06-16T18:37:44.249Z,42.00
2018-06-16T18:40:11.462Z,42.70
2018-06-16T18:42:38.734Z,42.60
2018-06-16T18:45:05.962Z,41.90
2018-06-16T18:47:33.190Z,42.40
2018-06-16T18:50:00.427Z,43.10
2018-06-16T18:52:27.666Z,42.90
2018-06-16T18:54:54.943Z,43.30
2018-06-16T18:57:22.152Z,44.40
2018-06-16T19:02:16.671Z,45.00
2018-06-16T19:04:43.891Z,44.60
2018-06-16T19:07:11.116Z,45.10
2018-06-16T19:12:05.515Z,45.30
2018-06-16T19:14:32.774Z,44.80
2018-06-16T19:17:00.144Z,45.30
2018-06-16T19:19:27.389Z,45.30
2018-06-16T19:21:54.621Z,46.30
2018-06-16T19:24:21.840Z,46.50
2018-06-16T19:26:49.126Z,46.80
2018-06-16T19:29:16.411Z,45.90
2018-06-16T19:34:11.730Z,48.00
2018-06-16T19:36:38.958Z,47.50
2018-06-16T19:39:07.680Z,48.30
2018-06-16T19:41:34.899Z,48.90
2018-06-16T19:44:02.114Z,49.80
2018-06-16T19:46:29.347Z,50.60
2018-06-16T19:48:56.558Z,50.20
2018-06-16T19:51:23.799Z,50.70
2018-06-16T19:53:51.034Z,50.60
2018-06-16T19:56:18.298Z,49.70
2018-06-16T19:58:45.524Z,49.70
2018-06-16T20:01:12.760Z,48.80
2018-06-16T20:03:39.987Z,48.40
2018-06-16T20:06:07.211Z,48.70
2018-06-16T20:08:34.432Z,48.80
2018-06-16T20:11:01.683Z,49.00
2018-06-16T20:13:28.955Z,49.10
2018-06-16T20:15:56.230Z,49.40
2018-06-16T20:18:23.472Z,49.80
2018-06-16T20:20:50.750Z,49.70
2018-06-16T20:23:17.976Z,48.90
2018-06-16T20:28:12.419Z,50.00
2018-06-16T20:30:39.743Z,50.00
2018-06-16T20:33:09.730Z,50.40
2018-06-16T20:35:36.980Z,52.30
2018-06-16T20:38:04.217Z,53.10
2018-06-16T20:40:31.456Z,53.20
2018-06-16T20:42:58.691Z,53.60
2018-06-16T20:45:25.913Z,52.20
2018-06-16T20:47:53.190Z,53.10
2018-06-16T20:50:20.370Z,52.60
2018-06-16T20:52:47.611Z,53.00
2018-06-16T20:57:42.147Z,53.00
2018-06-16T21:00:09.368Z,52.10
2018-06-16T21:02:36.623Z,52.60
2018-06-16T21:05:04.107Z,52.00
2018-06-16T21:07:31.327Z,52.90
2018-06-16T21:09:58.555Z,53.40
2018-06-16T21:12:25.786Z,54.20
2018-06-16T21:14:53.018Z,53.30
2018-06-16T21:17:20.372Z,54.10
2018-06-16T21:22:15.178Z,52.80
2018-06-16T21:24:42.513Z,52.90
2018-06-16T21:27:09.732Z,52.40
2018-06-16T21:29:36.964Z,53.50
2018-06-16T21:32:04.221Z,53.40
2018-06-16T21:34:31.850Z,53.30
2018-06-16T21:36:59.127Z,55.00
2018-06-16T21:39:26.353Z,56.70
2018-06-16T21:41:53.628Z,56.90
2018-06-16T21:44:20.834Z,56.70
2018-06-16T21:46:48.052Z,56.60
2018-06-16T21:49:15.284Z,56.50
2018-06-16T21:51:42.521Z,55.50
2018-06-16T21:54:10.453Z,56.30
2018-06-16T21:56:37.700Z,56.50
2018-06-16T21:59:04.978Z,57.10
2018-06-16T22:01:34.641Z,57.60
2018-06-16T22:04:02.421Z,56.40
2018-06-16T22:06:29.673Z,57.30
2018-06-16T22:08:57.139Z,57.70
2018-06-16T22:13:51.704Z,58.30
2018-06-16T22:16:18.929Z,58.40
2018-06-16T22:18:46.163Z,58.40
2018-06-16T22:21:13.443Z,58.50
2018-06-16T22:23:41.143Z,58.30
2018-06-16T22:28:36.592Z,57.80
2018-06-16T22:31:03.800Z,57.50
2018-06-16T22:33:31.027Z,58.20
2018-06-16T22:35:58.284Z,58.50
2018-06-16T22:38:25.514Z,58.70
2018-06-16T22:40:53.016Z,59.60
2018-06-16T22:43:20.327Z,60.20
2018-06-16T22:45:47.572Z,60.20
2018-06-16T22:48:14.820Z,59.90
2018-06-16T22:50:42.082Z,61.00
2018-06-16T22:53:09.338Z,61.20
2018-06-16T22:55:36.557Z,61.80
2018-06-16T22:58:03.823Z,61.40
2018-06-16T23:00:32.021Z,61.40
2018-06-16T23:02:59.317Z,61.70
2018-06-16T23:05:26.554Z,60.30
2018-06-16T23:07:53.907Z,62.30
2018-06-16T23:10:21.471Z,62.50
2018-06-16T23:12:48.704Z,62.70
2018-06-16T23:22:38.106Z,63.60
2018-06-16T23:25:05.314Z,63.00
2018-06-16T23:27:32.546Z,64.30
2018-06-16T23:29:59.772Z,63.20
2018-06-16T23:32:26.995Z,64.60
2018-06-16T23:34:54.219Z,64.70
2018-06-16T23:37:21.447Z,63.50
2018-06-16T23:39:48.662Z,65.00
2018-06-16T23:42:15.871Z,64.70
2018-06-16T23:44:43.123Z,64.70
2018-06-16T23:47:10.816Z,64.60
2018-06-16T23:49:38.030Z,64.60
2018-06-16T23:52:05.267Z,64.70
2018-06-16T23:54:32.467Z,63.30
2018-06-16T23:56:59.681Z,64.90
2018-06-16T23:59:26.871Z,64.80
